Time;durP1;ratioP1;P1;durP2;ratioP2;P2;SDS_P1;SDS_P2;PMS_P1;PMS_P2;Temp;Humidity;BMP_temperature;BMP_pressure;BME280_temperature;BME280_humidity;BME280_pressure;Samples;Min_cycle;Max_cycle;Signal;HPM_P1;HPM_P2
2023/10/09 00:02:19;;;;;;;6.80;6.17;;;;;;;-145.53;100.00;64590.91;6288509;27;109110;-61
2023/10/09 00:05:37;;;;;;;8.07;6.90;;;;;;;-145.53;100.00;64590.91;6288548;27;109084;-61
2023/10/09 00:08:44;;;;;;;8.23;6.97;;;;;;;-145.53;100.00;64590.91;6277840;27;109937;-60
2023/10/09 00:11:48;;;;;;;8.80;7.63;;;;;;;-145.53;100.00;64590.91;6289067;27;109364;-61
2023/10/09 00:14:55;;;;;;;8.73;7.93;;;;;;;-145.53;100.00;64590.91;6288893;27;109125;-61
2023/10/09 00:18:01;;;;;;;8.43;6.97;;;;;;;-145.53;100.00;64590.91;6285432;27;109173;-61
2023/10/09 00:21:12;;;;;;;9.03;8.20;;;;;;;-145.53;100.00;64590.91;6283474;27;111783;-61
2023/10/09 00:24:23;;;;;;;8.60;7.80;;;;;;;-145.53;100.00;64590.91;6288552;27;109131;-61
2023/10/09 00:27:31;;;;;;;9.83;8.00;;;;;;;-145.53;100.00;64590.91;6308817;27;109278;-61
2023/10/09 00:30:35;;;;;;;10.80;8.47;;;;;;;-145.53;100.00;64590.91;6302393;27;109156;-62
2023/10/09 00:33:40;;;;;;;9.40;8.50;;;;;;;-145.53;100.00;64590.91;6313668;27;109031;-63
2023/10/09 00:36:50;;;;;;;9.30;8.50;;;;;;;-145.53;100.00;64590.91;6295196;27;109567;-63
2023/10/09 00:39:56;;;;;;;8.87;7.93;;;;;;;-145.53;100.00;64590.91;6288238;27;109284;-63
2023/10/09 00:43:05;;;;;;;10.37;9.20;;;;;;;-145.53;100.00;64590.91;6278357;27;109744;-63
2023/10/09 00:46:12;;;;;;;9.40;8.50;;;;;;;-145.53;100.00;64590.91;6300913;27;109353;-62
2023/10/09 00:49:20;;;;;;;9.80;8.80;;;;;;;-145.53;100.00;64590.91;6313700;27;108959;-63
2023/10/09 00:52:31;;;;;;;10.60;9.50;;;;;;;-145.53;100.00;64590.91;6308365;27;109066;-63
2023/10/09 00:55:44;;;;;;;10.77;9.67;;;;;;;-145.53;100.00;64590.91;6300629;27;109177;-62
2023/10/09 00:58:55;;;;;;;12.00;10.30;;;;;;;-145.53;100.00;64590.91;6287699;27;109044;-62
2023/10/09 01:02:04;;;;;;;11.00;9.90;;;;;;;-145.53;100.00;64590.91;6287935;27;109195;-62
2023/10/09 01:05:19;;;;;;;10.20;9.10;;;;;;;-145.53;100.00;64590.91;6278539;27;109611;-62
2023/10/09 01:08:28;;;;;;;9.20;8.40;;;;;;;-145.53;100.00;64590.91;6288005;27;109772;-62
2023/10/09 01:11:34;;;;;;;10.70;7.97;;;;;;;-145.53;100.00;64590.91;6303314;27;109147;-62
2023/10/09 01:14:40;;;;;;;9.37;8.47;;;;;;;-145.53;100.00;64590.91;6312275;27;109080;-63
2023/10/09 01:17:45;;;;;;;9.10;8.20;;;;;;;-145.53;100.00;64590.91;6280925;27;109236;-62
2023/10/09 01:20:52;;;;;;;7.90;7.10;;;;;;;-145.53;100.00;64590.91;6287923;27;109746;-61
2023/10/09 01:24:06;;;;;;;8.43;7.53;;;;;;;-145.53;100.00;64590.91;6288232;27;109158;-61
2023/10/09 01:27:14;;;;;;;7.90;7.10;;;;;;;-145.53;100.00;64590.91;6280081;27;109228;-62
2023/10/09 01:30:20;;;;;;;8.07;7.37;;;;;;;-145.53;100.00;64590.91;6291262;27;109094;-61
2023/10/09 01:33:24;;;;;;;9.87;8.87;;;;;;;-145.53;100.00;64590.91;6312408;27;108994;-64
2023/10/09 01:36:32;;;;;;;11.07;10.07;;;;;;;-145.53;100.00;64590.91;6312252;27;109557;-61
2023/10/09 01:39:41;;;;;;;9.60;8.80;;;;;;;-145.53;100.00;64590.91;6302358;27;110326;-60
2023/10/09 01:42:45;;;;;;;10.53;9.53;;;;;;;-145.53;100.00;64590.91;6312057;27;109213;-60
2023/10/09 01:45:51;;;;;;;10.50;9.50;;;;;;;-145.53;100.00;64590.91;6304937;27;109315;-61
2023/10/09 01:48:55;;;;;;;9.93;9.03;;;;;;;-145.53;100.00;64590.91;6283362;27;109739;-61
2023/10/09 01:52:03;;;;;;;11.03;9.80;;;;;;;-145.53;100.00;64590.91;6281226;27;109782;-61
2023/10/09 01:55:28;;;;;;;11.27;10.00;;;;;;;-145.53;100.00;64590.91;6288399;27;109205;-61
2023/10/09 01:58:32;;;;;;;9.77;8.70;;;;;;;-145.53;100.00;64590.91;6291411;27;110205;-61
2023/10/09 02:01:40;;;;;;;10.60;9.60;;;;;;;-145.53;100.00;64590.91;6280211;27;109050;-61
2023/10/09 02:04:44;;;;;;;11.03;9.33;;;;;;;-145.53;100.00;64590.91;6291051;27;109023;-61
2023/10/09 02:07:51;;;;;;;9.70;8.90;;;;;;;-145.53;100.00;64590.91;6313809;27;109100;-60
2023/10/09 02:10:56;;;;;;;11.10;10.00;;;;;;;-145.53;100.00;64590.91;6316478;27;111400;-60
2023/10/09 02:14:00;;;;;;;10.40;9.40;;;;;;;-145.53;100.00;64590.91;6306089;27;109984;-60
2023/10/09 02:17:08;;;;;;;10.60;9.60;;;;;;;-145.53;100.00;64590.91;6316722;27;108931;-60
2023/10/09 02:20:18;;;;;;;9.90;9.10;;;;;;;-145.53;100.00;64590.91;6316305;27;109234;-61
2023/10/09 02:23:25;;;;;;;10.03;9.13;;;;;;;-145.53;100.00;64590.91;6285769;27;109100;-62
2023/10/09 02:27:06;;;;;;;9.90;9.00;;;;;;;-145.53;100.00;64590.91;6297284;27;109049;-61
2023/10/09 02:29:58;;;;;;;9.20;8.40;;;;;;;-145.53;100.00;64590.91;6315307;27;109101;-61
2023/10/09 02:33:09;;;;;;;9.93;8.80;;;;;;;-145.53;100.00;64590.91;6315857;27;109199;-61
2023/10/09 02:36:12;;;;;;;9.70;8.80;;;;;;;-145.53;100.00;64590.91;6297868;27;110023;-61
2023/10/09 02:39:22;;;;;;;9.13;8.33;;;;;;;-145.53;100.00;64590.91;6290230;27;109184;-61
2023/10/09 02:42:29;;;;;;;10.67;9.67;;;;;;;-145.53;100.00;64590.91;6290136;27;109224;-61
2023/10/09 02:45:34;;;;;;;10.03;9.03;;;;;;;-145.53;100.00;64590.91;6289103;27;108819;-67
2023/10/09 02:48:42;;;;;;;9.63;8.63;;;;;;;-145.53;100.00;64590.91;6284785;27;109345;-67
2023/10/09 02:51:47;;;;;;;9.43;8.53;;;;;;;-145.53;100.00;64590.91;6290711;27;109274;-68
2023/10/09 02:54:59;;;;;;;9.60;8.70;;;;;;;-145.53;100.00;64590.91;6291046;27;109074;-67
2023/10/09 02:58:14;;;;;;;10.37;9.37;;;;;;;-145.53;100.00;64590.91;6302151;27;109056;-67
2023/10/09 03:01:17;;;;;;;9.97;8.93;;;;;;;-145.53;100.00;64590.91;6315358;27;109394;-67
2023/10/09 03:04:23;;;;;;;8.53;7.67;;;;;;;-145.53;100.00;64590.91;6315790;27;108923;-67
2023/10/09 03:07:27;;;;;;;7.40;6.80;;;;;;;-145.53;100.00;64590.91;6314529;27;109482;-67
2023/10/09 03:10:34;;;;;;;6.37;5.77;;;;;;;-145.53;100.00;64590.91;6304483;27;109185;-68
2023/10/09 03:13:38;;;;;;;6.83;6.23;;;;;;;-145.53;100.00;64590.91;6289687;27;109179;-67
2023/10/09 03:16:41;;;;;;;6.70;5.50;;;;;;;-145.53;100.00;64590.91;6288961;27;109412;-68
2023/10/09 03:19:45;;;;;;;7.00;5.47;;;;;;;-145.53;100.00;64590.91;6284719;27;109093;-66
2023/10/09 03:22:49;;;;;;;6.27;5.67;;;;;;;-145.53;100.00;64590.91;6283845;27;109290;-65
2023/10/09 03:25:53;;;;;;;12.07;10.97;;;;;;;-145.53;100.00;64590.91;6289332;27;109870;-61
2023/10/09 03:29:10;;;;;;;24.57;22.47;;;;;;;-145.53;100.00;64590.91;6289967;27;110089;-61
2023/10/09 03:32:14;;;;;;;26.87;24.67;;;;;;;-145.53;100.00;64590.91;6279424;27;109771;-62
2023/10/09 03:35:23;;;;;;;18.27;16.87;;;;;;;-145.53;100.00;64590.91;6289346;27;109588;-64
2023/10/09 03:38:29;;;;;;;12.77;11.67;;;;;;;-145.53;100.00;64590.91;6297217;27;109336;-68
2023/10/09 03:41:32;;;;;;;9.50;8.60;;;;;;;-145.53;100.00;64590.91;6314276;27;109610;-65
2023/10/09 03:44:41;;;;;;;10.67;9.57;;;;;;;-145.53;100.00;64590.91;6303082;27;109617;-67
2023/10/09 03:47:48;;;;;;;12.37;11.13;;;;;;;-145.53;100.00;64590.91;6312102;27;109981;-67
2023/10/09 03:51:07;;;;;;;6.90;6.30;;;;;;;-145.53;100.00;64590.91;6314365;27;108874;-66
2023/10/09 03:54:13;;;;;;;8.93;6.63;;;;;;;-145.53;100.00;64590.91;6284323;27;112525;-65
2023/10/09 03:57:19;;;;;;;7.93;6.27;;;;;;;-145.53;100.00;64590.91;6296296;27;109313;-64
2023/10/09 04:00:28;;;;;;;13.47;5.30;;;;;;;-145.53;100.00;64590.91;6312991;27;109044;-59
2023/10/09 04:03:32;;;;;;;5.13;4.27;;;;;;;-145.53;100.00;64590.91;6311682;27;108981;-60
2023/10/09 04:06:37;;;;;;;4.50;3.83;;;;;;;-145.53;100.00;64590.91;6302782;27;109202;-59
2023/10/09 04:09:44;;;;;;;4.20;3.80;;;;;;;-145.53;100.00;64590.91;6313547;27;108682;-60
2023/10/09 04:12:52;;;;;;;3.97;2.83;;;;;;;-145.53;100.00;64590.91;6312029;27;109248;-59
2023/10/09 04:15:59;;;;;;;4.23;2.63;;;;;;;-145.53;100.00;64590.91;6314090;27;109274;-60
2023/10/09 04:19:10;;;;;;;8.87;2.50;;;;;;;-145.53;100.00;64590.91;6294674;27;110166;-59
2023/10/09 04:22:25;;;;;;;3.60;2.80;;;;;;;-145.53;100.00;64590.91;6304558;27;110109;-58
2023/10/09 04:25:32;;;;;;;2.87;1.80;;;;;;;-145.53;100.00;64590.91;6313076;27;109164;-59
2023/10/09 04:28:36;;;;;;;4.10;1.50;;;;;;;-145.53;100.00;64590.91;6299436;27;109680;-60
2023/10/09 04:31:41;;;;;;;4.80;1.77;;;;;;;-145.53;100.00;64590.91;6313197;27;109308;-59
2023/10/09 04:34:49;;;;;;;3.90;1.60;;;;;;;-145.53;100.00;64590.91;6314445;27;110157;-59
2023/10/09 04:38:03;;;;;;;2.40;1.33;;;;;;;-145.53;100.00;64590.91;6312938;27;109987;-60
2023/10/09 04:41:08;;;;;;;2.17;1.27;;;;;;;-145.53;100.00;64590.91;6302924;27;110483;-58
2023/10/09 04:44:18;;;;;;;2.70;1.70;;;;;;;-145.53;100.00;64590.91;6288212;27;109244;-59
2023/10/09 04:47:25;;;;;;;3.40;1.40;;;;;;;-145.53;100.00;64590.91;6288386;27;109008;-58
2023/10/09 04:50:45;;;;;;;3.00;1.20;;;;;;;-145.53;100.00;64590.91;6287394;27;108739;-60
2023/10/09 04:53:54;;;;;;;2.10;1.10;;;;;;;-145.53;100.00;64590.91;6304649;27;110910;-59
2023/10/09 04:56:59;;;;;;;3.40;1.17;;;;;;;-145.53;100.00;64590.91;6313426;27;110266;-59
2023/10/09 05:00:06;;;;;;;1.80;1.10;;;;;;;-145.53;100.00;64590.91;6313814;27;111392;-59
2023/10/09 05:03:12;;;;;;;2.10;1.17;;;;;;;-145.53;100.00;64590.91;6303526;27;109170;-59
2023/10/09 05:09:55;;;;;;;2.10;1.40;;;;;;;-145.53;100.00;64590.91;6312596;27;109710;-61
2023/10/09 05:12:56;;;;;;;1.70;1.20;;;;;;;-145.53;100.00;64590.91;6312285;27;109223;-61
2023/10/09 05:16:00;;;;;;;4.20;1.10;;;;;;;-145.53;100.00;64590.91;6302269;27;108820;-61
2023/10/09 05:19:08;;;;;;;3.93;1.40;;;;;;;-145.53;100.00;64590.91;6312743;27;109108;-61
2023/10/09 05:22:29;;;;;;;2.70;1.20;;;;;;;-145.53;100.00;64590.91;6313093;27;110876;-61
2023/10/09 05:28:58;;;;;;;2.00;1.20;;;;;;;-145.53;100.00;64590.91;6308641;27;110416;-62
2023/10/09 05:32:15;;;;;;;2.33;1.40;;;;;;;-145.53;100.00;64590.91;6307189;27;109061;-61
2023/10/09 05:35:29;;;;;;;1.63;1.13;;;;;;;-145.53;100.00;64590.91;6287874;27;109539;-61
2023/10/09 05:38:35;;;;;;;2.37;1.57;;;;;;;-145.53;100.00;64590.91;6293216;27;110029;-61
2023/10/09 05:41:47;;;;;;;2.47;1.23;;;;;;;-145.53;100.00;64590.91;6312406;27;108689;-61
2023/10/09 05:46:01;;;;;;;2.87;1.20;;;;;;;-145.53;100.00;64590.91;6312226;27;109349;-61
2023/10/09 05:52:32;;;;;;;3.20;1.00;;;;;;;-145.53;100.00;64590.91;6233794;28;109801;-62
2023/10/09 05:57:00;;;;;;;2.00;1.50;;;;;;;-145.53;100.00;64590.91;6237154;27;110677;-61
2023/10/09 06:05:51;;;;;;;2.73;1.60;;;;;;;-145.53;100.00;64590.91;6265104;27;109187;-62
2023/10/09 06:12:49;;;;;;;1.70;1.20;;;;;;;-145.53;100.00;64590.91;6275410;27;109080;-62
2023/10/09 06:16:19;;;;;;;3.30;1.20;;;;;;;-145.53;100.00;64590.91;6287206;27;108745;-62
2023/10/09 06:19:27;;;;;;;1.77;1.20;;;;;;;-145.53;100.00;64590.91;6286966;27;110090;-62
2023/10/09 06:22:56;;;;;;;3.20;1.30;;;;;;;-145.53;100.00;64590.91;6276520;27;109925;-62
2023/10/09 06:26:23;;;;;;;3.00;1.37;;;;;;;-145.53;100.00;64590.91;6286909;27;108913;-62
2023/10/09 06:29:38;;;;;;;2.77;1.30;;;;;;;-145.53;100.00;64590.91;6308449;27;109524;-63
2023/10/09 06:32:50;;;;;;;2.00;1.17;;;;;;;-145.53;100.00;64590.91;6311307;27;110253;-61
2023/10/09 06:36:06;;;;;;;2.00;1.17;;;;;;;-145.53;100.00;64590.91;6306024;27;111393;-61
2023/10/09 06:42:43;;;;;;;1.80;0.97;;;;;;;-145.53;100.00;64590.91;6312652;27;108632;-61
2023/10/09 06:45:54;;;;;;;1.70;0.90;;;;;;;-145.53;100.00;64590.91;6305018;27;109228;-61
2023/10/09 06:48:56;;;;;;;1.80;1.10;;;;;;;-145.53;100.00;64590.91;6315961;27;108936;-62
2023/10/09 06:52:15;;;;;;;2.30;1.37;;;;;;;-145.53;100.00;64590.91;6316030;27;110064;-61
2023/10/09 06:55:19;;;;;;;2.03;0.90;;;;;;;-145.53;100.00;64590.91;6290599;27;109061;-63
2023/10/09 06:58:27;;;;;;;1.57;1.10;;;;;;;-145.53;100.00;64590.91;6280582;27;108892;-62
2023/10/09 07:01:39;;;;;;;2.63;1.20;;;;;;;-145.53;100.00;64590.91;6290796;27;108935;-62
2023/10/09 07:04:54;;;;;;;1.73;1.27;;;;;;;-145.53;100.00;64590.91;6312977;27;109134;-62
2023/10/09 07:08:28;;;;;;;2.53;1.33;;;;;;;-145.53;100.00;64590.91;6304988;27;109982;-66
2023/10/09 07:11:57;;;;;;;1.83;1.10;;;;;;;-145.53;100.00;64590.91;6316195;27;109790;-62
2023/10/09 07:16:23;;;;;;;3.60;1.70;;;;;;;-145.53;100.00;64590.91;6315592;27;110059;-62
2023/10/09 07:18:40;;;;;;;1.90;1.40;;;;;;;-145.53;100.00;64590.91;6310327;27;109968;-61
2023/10/09 07:21:51;;;;;;;1.70;1.10;;;;;;;-145.53;100.00;64590.91;6310291;27;111428;-61
2023/10/09 07:24:57;;;;;;;2.73;1.30;;;;;;;-145.53;100.00;64590.91;6315221;27;108864;-62
2023/10/09 07:28:03;;;;;;;4.23;1.27;;;;;;;-145.53;100.00;64590.91;6296860;27;109484;-59
2023/10/09 07:31:09;;;;;;;2.60;1.60;;;;;;;-145.53;100.00;64590.91;6278511;27;110061;-58
2023/10/09 07:37:35;;;;;;;2.30;1.63;;;;;;;-145.53;100.00;64590.91;6289553;27;109323;-59
2023/10/09 07:40:55;;;;;;;2.70;1.70;;;;;;;-145.53;100.00;64590.91;6288581;27;109200;-59
2023/10/09 07:43:58;;;;;;;2.53;1.43;;;;;;;-145.53;100.00;64590.91;6279437;27;109053;-59
2023/10/09 07:47:17;;;;;;;2.17;1.63;;;;;;;-145.53;100.00;64590.91;6288975;27;108996;-60
2023/10/09 07:50:21;;;;;;;2.20;1.67;;;;;;;-145.53;100.00;64590.91;6289223;27;109524;-60
2023/10/09 07:53:27;;;;;;;2.80;2.20;;;;;;;-145.53;100.00;64590.91;6279170;27;109973;-59
2023/10/09 07:56:38;;;;;;;2.50;1.70;;;;;;;-145.53;100.00;64590.91;6288903;27;109568;-59
2023/10/09 07:59:54;;;;;;;2.70;1.87;;;;;;;-145.53;100.00;64590.91;6308094;27;109015;-60
2023/10/09 08:03:00;;;;;;;2.37;1.70;;;;;;;-145.53;100.00;64590.91;6314281;27;109123;-60
2023/10/09 08:09:46;;;;;;;2.40;1.60;;;;;;;-145.53;100.00;64590.91;6313607;27;109340;-59
2023/10/09 08:12:58;;;;;;;2.10;1.43;;;;;;;-145.53;100.00;64590.91;6313652;27;109776;-64
2023/10/09 08:16:03;;;;;;;1.87;1.43;;;;;;;-145.53;100.00;64590.91;6303475;27;109112;-65
2023/10/09 08:19:32;;;;;;;2.43;1.53;;;;;;;-145.53;100.00;64590.91;6313897;27;109172;-60
2023/10/09 08:22:43;;;;;;;3.43;1.70;;;;;;;-145.53;100.00;64590.91;6313790;27;108911;-59
2023/10/09 08:25:57;;;;;;;2.23;1.50;;;;;;;-145.53;100.00;64590.91;6313863;27;109787;-59
2023/10/09 08:32:38;;;;;;;2.53;2.33;;;;;;;-145.53;100.00;64590.91;6288072;27;110235;-61
2023/10/09 08:35:47;;;;;;;5.23;3.10;;;;;;;-145.53;100.00;64590.91;6287537;27;109014;-60
2023/10/09 08:38:58;;;;;;;5.70;5.30;;;;;;;-145.53;100.00;64590.91;6276561;27;109772;-62
2023/10/09 08:42:03;;;;;;;4.83;4.43;;;;;;;-145.53;100.00;64590.91;6287555;27;109117;-62
2023/10/09 08:45:10;;;;;;;4.47;4.13;;;;;;;-145.53;100.00;64590.91;6287475;27;108860;-62
2023/10/09 08:48:15;;;;;;;4.90;4.40;;;;;;;-145.53;100.00;64590.91;6287534;27;109381;-62
2023/10/09 08:51:21;;;;;;;4.27;3.87;;;;;;;-145.53;100.00;64590.91;6277717;27;110064;-62
2023/10/09 08:54:24;;;;;;;3.20;3.00;;;;;;;-145.53;100.00;64590.91;6287106;27;109294;-62
2023/10/09 08:57:30;;;;;;;3.33;3.03;;;;;;;-145.53;100.00;64590.91;6287361;27;109175;-61
2023/10/09 09:00:34;;;;;;;3.37;3.07;;;;;;;-145.53;100.00;64590.91;6310142;27;109581;-62
2023/10/09 09:03:40;;;;;;;4.13;2.87;;;;;;;-145.53;100.00;64590.91;6303209;27;111912;-62
2023/10/09 09:06:45;;;;;;;2.47;2.27;;;;;;;-145.53;100.00;64590.91;6312004;27;108990;-62
2023/10/09 09:09:56;;;;;;;4.90;2.60;;;;;;;-145.53;100.00;64590.91;6312462;27;108980;-62
2023/10/09 09:13:03;;;;;;;2.80;1.90;;;;;;;-145.53;100.00;64590.91;6301328;27;109227;-62
2023/10/09 09:16:07;;;;;;;2.13;1.93;;;;;;;-145.53;100.00;64590.91;6286903;27;109094;-61
2023/10/09 09:19:18;;;;;;;2.13;1.83;;;;;;;-145.53;100.00;64590.91;6286867;27;109176;-63
2023/10/09 09:22:23;;;;;;;2.97;2.17;;;;;;;-145.53;100.00;64590.91;6287450;27;110556;-62
2023/10/09 09:25:43;;;;;;;1.97;1.70;;;;;;;-145.53;100.00;64590.91;6276205;27;109584;-62
2023/10/09 09:28:54;;;;;;;2.33;1.87;;;;;;;-145.53;100.00;64590.91;6293547;27;110096;-63
2023/10/09 09:32:06;;;;;;;2.67;1.77;;;;;;;-145.53;100.00;64590.91;6312036;27;109329;-63
2023/10/09 09:35:18;;;;;;;1.93;1.53;;;;;;;-145.53;100.00;64590.91;6307199;27;109811;-63
2023/10/09 09:38:23;;;;;;;2.33;1.70;;;;;;;-145.53;100.00;64590.91;6305764;27;109089;-63
2023/10/09 09:41:27;;;;;;;4.43;2.37;;;;;;;-145.53;100.00;64590.91;6312635;27;109197;-62
2023/10/09 09:44:43;;;;;;;3.20;2.10;;;;;;;-145.53;100.00;64590.91;6312202;27;110058;-63
2023/10/09 09:47:51;;;;;;;2.20;1.80;;;;;;;-145.53;100.00;64590.91;6300274;27;108977;-63
2023/10/09 09:50:55;;;;;;;1.87;1.60;;;;;;;-145.53;100.00;64590.91;6311928;27;109203;-63
2023/10/09 09:54:00;;;;;;;2.40;1.93;;;;;;;-145.53;100.00;64590.91;6312028;27;109278;-64
2023/10/09 09:57:08;;;;;;;2.30;1.77;;;;;;;-145.53;100.00;64590.91;6312244;27;110165;-64
2023/10/09 10:00:29;;;;;;;2.47;1.90;;;;;;;-145.53;100.00;64590.91;6285021;27;110160;-64
2023/10/09 10:03:38;;;;;;;2.73;1.80;;;;;;;-145.53;100.00;64590.91;6286722;27;110039;-63
2023/10/09 10:06:45;;;;;;;2.40;1.80;;;;;;;-145.53;100.00;64590.91;6286769;27;110029;-63
2023/10/09 10:09:54;;;;;;;2.57;1.63;;;;;;;-145.53;100.00;64590.91;6275580;27;109002;-62
2023/10/09 10:13:03;;;;;;;2.80;1.90;;;;;;;-145.53;100.00;64590.91;6286189;27;109051;-63
2023/10/09 10:16:19;;;;;;;2.30;2.00;;;;;;;-145.53;100.00;64590.91;6287263;27;109520;-62
2023/10/09 10:19:23;;;;;;;2.43;1.60;;;;;;;-145.53;100.00;64590.91;6290716;27;108977;-62
2023/10/09 10:22:27;;;;;;;2.50;1.70;;;;;;;-145.53;100.00;64590.91;6280617;27;110181;-62
2023/10/09 10:25:41;;;;;;;2.20;1.93;;;;;;;-145.53;100.00;64590.91;6290891;27;109101;-63
2023/10/09 10:28:45;;;;;;;2.43;2.13;;;;;;;-145.53;100.00;64590.91;6293021;27;109494;-62
2023/10/09 10:32:00;;;;;;;2.20;1.97;;;;;;;-145.53;100.00;64590.91;6310823;27;109119;-62
2023/10/09 10:35:06;;;;;;;2.00;1.80;;;;;;;-145.53;100.00;64590.91;6309718;27;109642;-63
2023/10/09 10:38:25;;;;;;;2.07;1.83;;;;;;;-145.53;100.00;64590.91;6315543;27;108996;-62
2023/10/09 10:41:35;;;;;;;2.70;2.10;;;;;;;-145.53;100.00;64590.91;6315645;27;109166;-63
2023/10/09 10:44:41;;;;;;;2.30;1.93;;;;;;;-145.53;100.00;64590.91;6305360;27;111845;-63
2023/10/09 10:47:47;;;;;;;2.20;2.00;;;;;;;-145.53;100.00;64590.91;6316326;27;110019;-63
2023/10/09 10:50:57;;;;;;;2.60;2.23;;;;;;;-145.53;100.00;64590.91;6315060;27;108997;-62
2023/10/09 10:54:26;;;;;;;2.47;2.00;;;;;;;-145.53;100.00;64590.91;6315208;27;109243;-63
2023/10/09 10:57:37;;;;;;;3.60;2.70;;;;;;;-145.53;100.00;64590.91;6297550;27;109033;-62
2023/10/09 11:04:13;;;;;;;3.13;2.43;;;;;;;-145.53;100.00;64590.91;6315615;27;110256;-62
2023/10/09 11:07:26;;;;;;;3.53;3.23;;;;;;;-145.53;100.00;64590.91;6304903;27;110547;-62
2023/10/09 11:10:31;;;;;;;4.57;4.17;;;;;;;-145.53;100.00;64590.91;6314691;27;109053;-62
2023/10/09 11:13:52;;;;;;;6.20;4.67;;;;;;;-145.53;100.00;64590.91;6314943;27;109168;-62
2023/10/09 11:16:58;;;;;;;5.10;4.50;;;;;;;-145.53;100.00;64590.91;6289860;27;110927;-62
2023/10/09 11:20:22;;;;;;;4.73;4.30;;;;;;;-145.53;100.00;64590.91;6279575;27;109279;-62
2023/10/09 11:23:36;;;;;;;5.20;4.70;;;;;;;-145.53;100.00;64590.91;6289518;27;109783;-61
2023/10/09 11:26:40;;;;;;;5.40;4.90;;;;;;;-145.53;100.00;64590.91;6289099;27;109097;-63
2023/10/09 11:30:05;;;;;;;5.60;5.00;;;;;;;-145.53;100.00;64590.91;6278028;27;110328;-63
2023/10/09 11:33:14;;;;;;;5.40;4.90;;;;;;;-145.53;100.00;64590.91;6289274;27;109202;-61
2023/10/09 11:36:21;;;;;;;5.30;4.80;;;;;;;-145.53;100.00;64590.91;6289777;27;111227;-61
2023/10/09 11:39:32;;;;;;;5.47;4.97;;;;;;;-145.53;100.00;64590.91;6289546;27;108968;-62
2023/10/09 11:42:48;;;;;;;5.40;4.90;;;;;;;-145.53;100.00;64590.91;6278572;27;110165;-61
2023/10/09 11:45:56;;;;;;;5.80;5.23;;;;;;;-145.53;100.00;64590.91;6290410;27;111561;-62
2023/10/09 11:49:34;;;;;;;5.20;4.70;;;;;;;-145.53;100.00;64590.91;6289621;27;109128;-62
2023/10/09 11:52:38;;;;;;;5.23;4.77;;;;;;;-145.53;100.00;64590.91;6278482;27;109087;-62
2023/10/09 11:55:42;;;;;;;5.60;5.10;;;;;;;-145.53;100.00;64590.91;6289152;27;109136;-62
2023/10/09 11:58:49;;;;;;;5.57;5.07;;;;;;;-145.53;100.00;64590.91;6310564;27;110210;-62
2023/10/09 12:02:00;;;;;;;5.63;4.90;;;;;;;-145.53;100.00;64590.91;6315263;27;109212;-62
2023/10/09 12:05:07;;;;;;;4.40;4.00;;;;;;;-145.53;100.00;64590.91;6303432;27;109073;-61
2023/10/09 12:08:14;;;;;;;4.37;3.97;;;;;;;-145.53;100.00;64590.91;6315475;27;108771;-62
2023/10/09 12:11:22;;;;;;;4.67;4.27;;;;;;;-145.53;100.00;64590.91;6296141;27;109364;-61
2023/10/09 12:14:33;;;;;;;5.13;4.13;;;;;;;-145.53;100.00;64590.91;6284134;27;109287;-61
2023/10/09 12:17:44;;;;;;;4.80;4.40;;;;;;;-145.53;100.00;64590.91;6287876;27;110020;-61
2023/10/09 12:20:50;;;;;;;5.00;4.50;;;;;;;-145.53;100.00;64590.91;6302837;27;109978;-61
2023/10/09 12:23:57;;;;;;;4.20;3.80;;;;;;;-145.53;100.00;64590.91;6314463;27;110697;-61
2023/10/09 12:27:09;;;;;;;4.57;4.17;;;;;;;-145.53;100.00;64590.91;6278955;27;109217;-61
2023/10/09 12:33:39;;;;;;;4.40;4.00;;;;;;;-145.53;100.00;64590.91;6471889;22;110622;-62
2023/10/09 12:36:43;;;;;;;4.10;3.70;;;;;;;-145.53;100.00;64590.91;6138191;28;109147;-62
2023/10/09 12:39:47;;;;;;;4.33;3.93;;;;;;;-145.53;100.00;64590.91;6131990;28;109892;-63
2023/10/09 12:42:52;;;;;;;5.10;3.83;;;;;;;-145.53;100.00;64590.91;6138247;28;109108;-63
2023/10/09 12:45:57;;;;;;;5.10;3.77;;;;;;;-145.53;100.00;64590.91;6138726;28;108974;-60
2023/10/09 12:49:02;;;;;;;4.93;4.50;;;;;;;-145.53;100.00;64590.91;6128020;28;109045;-61
2023/10/09 12:52:05;;;;;;;3.87;3.43;;;;;;;-145.53;100.00;64590.91;6138490;28;109050;-61
2023/10/09 12:55:19;;;;;;;4.40;3.60;;;;;;;-145.53;100.00;64590.91;6138406;28;110040;-61
2023/10/09 12:58:26;;;;;;;5.03;3.67;;;;;;;-145.53;100.00;64590.91;6138475;28;109150;-61
2023/10/09 13:01:31;;;;;;;4.20;3.80;;;;;;;-145.53;100.00;64590.91;6127574;28;109706;-61
2023/10/09 13:04:40;;;;;;;5.17;4.67;;;;;;;-145.53;100.00;64590.91;6138205;28;109059;-62
2023/10/09 13:07:44;;;;;;;6.30;5.70;;;;;;;-145.53;100.00;64590.91;6138202;28;109006;-62
2023/10/09 13:10:55;;;;;;;5.37;4.87;;;;;;;-145.53;100.00;64590.91;6133481;28;110173;-62
2023/10/09 13:14:11;;;;;;;5.50;5.07;;;;;;;-145.53;100.00;64590.91;6131568;28;109225;-61
2023/10/09 13:17:14;;;;;;;6.47;5.87;;;;;;;-145.53;100.00;64590.91;6137726;28;108993;-61
2023/10/09 13:20:19;;;;;;;6.73;6.10;;;;;;;-145.53;100.00;64590.91;6137562;28;109009;-61
2023/10/09 13:23:27;;;;;;;7.40;6.70;;;;;;;-145.53;100.00;64590.91;6126708;28;109178;-62
2023/10/09 13:26:35;;;;;;;7.83;6.30;;;;;;;-145.53;100.00;64590.91;6137696;28;110207;-61
2023/10/09 13:29:41;;;;;;;7.53;6.83;;;;;;;-145.53;100.00;64590.91;6137643;28;109198;-61
2023/10/09 13:32:48;;;;;;;7.00;6.40;;;;;;;-145.53;100.00;64590.91;6100342;28;109152;-62
2023/10/09 13:35:53;;;;;;;7.03;6.43;;;;;;;-145.53;100.00;64590.91;6088113;28;109767;-62
2023/10/09 13:38:57;;;;;;;6.23;5.73;;;;;;;-145.53;100.00;64590.91;6113672;28;110269;-62
2023/10/09 13:42:01;;;;;;;8.03;7.30;;;;;;;-145.53;100.00;64590.91;6113555;28;108817;-62
2023/10/09 13:45:15;;;;;;;8.13;7.43;;;;;;;-145.53;100.00;64590.91;6108001;28;108965;-62
2023/10/09 13:48:20;;;;;;;10.90;9.40;;;;;;;-145.53;100.00;64590.91;6108274;28;108941;-63
2023/10/09 13:51:25;;;;;;;9.37;8.47;;;;;;;-145.53;100.00;64590.91;6113357;28;111675;-62
2023/10/09 13:54:40;;;;;;;13.83;12.43;;;;;;;-145.53;100.00;64590.91;6113068;28;109080;-62
2023/10/09 13:57:45;;;;;;;12.33;11.03;;;;;;;-145.53;100.00;64590.91;6102015;28;109362;-62
2023/10/09 14:00:49;;;;;;;13.93;12.53;;;;;;;-145.53;100.00;64590.91;6112897;28;108986;-62
2023/10/09 14:03:53;;;;;;;16.37;13.73;;;;;;;-145.53;100.00;64590.91;6113001;28;109031;-62
2023/10/09 14:07:01;;;;;;;17.10;15.50;;;;;;;-145.53;100.00;64590.91;6112985;28;109995;-62
2023/10/09 14:10:17;;;;;;;15.20;13.67;;;;;;;-145.53;100.00;64590.91;6102447;28;110010;-62
2023/10/09 14:13:25;;;;;;;16.30;14.60;;;;;;;-145.53;100.00;64590.91;6113410;28;108585;-62
2023/10/09 14:16:32;;;;;;;18.40;14.40;;;;;;;-145.53;100.00;64590.91;6112638;28;111836;-62
2023/10/09 14:19:36;;;;;;;17.00;14.37;;;;;;;-145.53;100.00;64590.91;6102852;28;109859;-62
2023/10/09 14:22:40;;;;;;;14.73;13.17;;;;;;;-145.53;100.00;64590.91;6112170;28;109731;-62
2023/10/09 14:25:44;;;;;;;15.00;13.40;;;;;;;-145.53;100.00;64590.91;6112467;28;109085;-61
2023/10/09 14:28:48;;;;;;;16.13;13.73;;;;;;;-145.53;100.00;64590.91;6112386;28;109158;-62
2023/10/09 14:32:00;;;;;;;16.27;13.97;;;;;;;-145.53;100.00;64590.91;6100983;28;109173;-62
2023/10/09 14:35:12;;;;;;;18.00;16.20;;;;;;;-145.53;100.00;64590.91;6112210;28;109215;-61
2023/10/09 14:38:21;;;;;;;14.40;13.00;;;;;;;-145.53;100.00;64590.91;6112431;28;109306;-62
2023/10/09 14:41:25;;;;;;;14.60;13.03;;;;;;;-145.53;100.00;64590.91;6112842;28;112190;-62
2023/10/09 14:44:30;;;;;;;14.87;12.33;;;;;;;-145.53;100.00;64590.91;6101773;28;110152;-61
2023/10/09 14:47:33;;;;;;;12.37;11.20;;;;;;;-145.53;100.00;64590.91;6112123;28;109238;-62
2023/10/09 14:50:38;;;;;;;11.17;10.07;;;;;;;-145.53;100.00;64590.91;6112168;28;109084;-62